Terminal Aerodrome Forecast
Issued by NWS

Current Version | Previous Version | Graphics & Text | Print | Product List | Glossary On
Versions: 1 2 3 4 5 6 7 8 9 10 11 12 13 14
000
FTUS41 KILN 180533
TAFLCK
TAF
KLCK 180533Z 1806/1906 08005KT P6SM SCT050
      TEMPO 1808/1812 4SM BR
     FM181500 21005KT P6SM SCT050
     FM190000 VRB03KT P6SM SCT250=

USA.gov is the U.S. government's official web portal to all federal, state and local government web resources and services.